Huvudsida
METAR-TAF:

METAR-TAF

Flygplatser :

Ørsta-Volda flygplats. Hovden

Ørsta-Volda, Norge

latitud: 62-11N, longitud: 006-04E, höjd: 7 m

Aktuellt väderrapport

Denna rapport gjordes för 5 timmar och 19 minuter sedan, klockan 12:20 UTC
Vind 9 kt från sydväst
Temperatur 9°C
Fuktighet 87%
Tryck 991 hPa
Sikt 10 km eller mer
Få moln på en höjd av 1300 ft
Spridda moln på en höjd av 2200 ft
Brutna moln på en höjd av 3600 ft
regnskurar

METAR: ENOV 221220Z 23009KT 9999 SHRA FEW013 SCT022 BKN036 09/07 Q0991 RMK WIND 2175FT 25012G26KT

Tid: 19:39 (17:39 UTC)


TAF: saknas

Aktuella väderrapporter och prognoser från 4000 flygplatser (METAR- och TAF-rapporter).

De tillgängliga stationerna syns som gula och röda prickar på kartan.

För musen över prickarna för att se namnen på stationerna.

Klicka sedan för att få väderrapporter och prognoser.

För att ändra kartan: Klicka på de gröna knapparna med ett svart kors på för att zooma in; den gröna knappen med ett streck på för att zooma ut; eller på de gröna pilarna för angränsande kartor.


METAR-TAF: